Авиационная погода в Гродно

СКИДКИ НА СМАРТФОНЫ!

Регион: 
Погода METAR: 
UMMG 091200Z 01003MPS 9999 BKN030 BKN066 21/13 Q1026 NOSIG
Время наблюдения
2022-08-09T12:00:00Z
Температура C
21.0
Точка росы
13.0
Направление ветра
10
Скорость ветра (узлы)
6
Метео видимость
6.21
Облачность
BKN
BKN
Нижняя граница облачности (футы)
3000
6600
Явления погоды
Условия полета
MVFR
Аэропорт подробнее: 
BKN – значительная (рассеянная, разорванная) облачность;

Скидки на навигаторы!